Time;durP1;ratioP1;P1;durP2;ratioP2;P2;SDS_P1;SDS_P2;PMS_P1;PMS_P2;Temp;Humidity;BMP_temperature;BMP_pressure;BME280_temperature;BME280_humidity;BME280_pressure;Samples;Min_cycle;Max_cycle;Signal;HPM_P1;HPM_P2
2023/05/05 00:01:31;;;;;;;7.33;5.73;;;;;;;8.87;100.00;102187.38;5009018;28;20468;-47
2023/05/05 00:03:59;;;;;;;5.63;5.27;;;;;;;8.85;100.00;102185.84;5012472;28;20950;-46
2023/05/05 00:06:28;;;;;;;14.40;5.83;;;;;;;8.87;100.00;102175.88;5012246;28;20788;-49
2023/05/05 00:08:57;;;;;;;8.03;5.73;;;;;;;8.85;100.00;102199.16;5012595;28;20477;-45
2023/05/05 00:11:25;;;;;;;8.07;5.33;;;;;;;8.84;100.00;102177.03;5011275;28;21020;-42
2023/05/05 00:13:52;;;;;;;7.23;5.20;;;;;;;8.85;100.00;102176.06;5012591;28;20439;-43
2023/05/05 00:16:22;;;;;;;7.57;5.80;;;;;;;8.87;100.00;102174.06;5011550;28;20458;-47
2023/05/05 00:18:49;;;;;;;6.00;5.50;;;;;;;8.82;100.00;102167.53;5011364;28;20429;-42
2023/05/05 00:21:17;;;;;;;7.80;5.77;;;;;;;8.83;100.00;102172.72;5011200;28;20615;-47
2023/05/05 00:23:45;;;;;;;8.37;6.30;;;;;;;8.84;100.00;102174.38;5012414;28;20457;-44
2023/05/05 00:26:14;;;;;;;15.10;6.30;;;;;;;8.85;100.00;102180.53;5025327;28;20440;-47
2023/05/05 00:28:42;;;;;;;10.97;6.47;;;;;;;8.82;100.00;102171.03;5021500;28;20433;-44
2023/05/05 00:31:10;;;;;;;9.23;6.00;;;;;;;8.81;100.00;102169.34;5008124;28;20472;-46
2023/05/05 00:33:37;;;;;;;8.40;7.70;;;;;;;8.79;100.00;102158.03;5011258;28;20428;-49
2023/05/05 00:36:06;;;;;;;7.57;6.87;;;;;;;8.81;100.00;102164.03;5010731;28;20429;-46
2023/05/05 00:38:33;;;;;;;7.93;7.20;;;;;;;8.77;100.00;102159.19;5011868;28;20851;-47
2023/05/05 00:41:01;;;;;;;8.90;7.40;;;;;;;8.77;100.00;102164.50;5010960;28;20460;-44
2023/05/05 00:43:30;;;;;;;9.53;8.70;;;;;;;8.73;100.00;102166.63;5011479;28;20429;-46
2023/05/05 00:46:01;;;;;;;10.47;9.17;;;;;;;8.76;100.00;102161.00;5012204;28;20437;-48
2023/05/05 00:48:30;;;;;;;13.10;10.60;;;;;;;8.74;100.00;102165.63;5010956;28;20436;-47
2023/05/05 00:50:58;;;;;;;10.77;9.77;;;;;;;8.78;100.00;102174.16;5010536;28;20488;-47
2023/05/05 00:53:27;;;;;;;11.70;10.60;;;;;;;8.75;100.00;102169.94;5010959;28;20437;-48
2023/05/05 00:55:54;;;;;;;15.47;10.87;;;;;;;8.73;100.00;102168.44;5010906;28;20827;-47
2023/05/05 00:58:22;;;;;;;11.23;10.13;;;;;;;8.67;100.00;102153.91;5011365;28;20460;-46
2023/05/05 01:00:51;;;;;;;12.63;11.37;;;;;;;8.60;100.00;102152.00;5009067;28;20441;-43
2023/05/05 01:03:19;;;;;;;16.03;11.80;;;;;;;8.60;100.00;102158.16;5011783;28;20447;-44
2023/05/05 01:05:56;;;;;;;13.70;10.73;;;;;;;8.54;100.00;102152.63;5011774;28;20444;-45
2023/05/05 01:08:34;;;;;;;12.23;10.80;;;;;;;8.49;100.00;102142.41;5010363;28;20452;-43
2023/05/05 01:11:07;;;;;;;14.97;11.00;;;;;;;8.52;100.00;102127.97;5011153;28;21005;-43
2023/05/05 01:13:48;;;;;;;12.03;11.03;;;;;;;8.44;100.00;102136.72;5011683;28;20429;-46
2023/05/05 01:16:20;;;;;;;10.80;9.83;;;;;;;8.48;100.00;102139.91;5010545;28;20851;-45
2023/05/05 01:18:56;;;;;;;13.57;10.03;;;;;;;8.47;100.00;102147.03;5010969;28;20516;-43
2023/05/05 01:21:29;;;;;;;13.50;10.83;;;;;;;8.41;100.00;102130.84;5010757;28;21064;-47
2023/05/05 01:24:39;;;;;;;25.33;11.87;;;;;;;8.40;100.00;102137.13;5010718;28;20835;-46
2023/05/05 01:27:27;;;;;;;13.93;11.40;;;;;;;8.40;100.00;102135.31;5009308;28;20436;-47
2023/05/05 01:30:08;;;;;;;17.37;12.03;;;;;;;8.40;100.00;102134.47;5011329;28;20472;-47
2023/05/05 01:32:41;;;;;;;12.47;11.30;;;;;;;8.36;100.00;102141.09;5009824;28;20878;-43
2023/05/05 01:35:15;;;;;;;15.20;11.53;;;;;;;8.36;100.00;102141.09;5014722;28;20436;-45
2023/05/05 01:37:47;;;;;;;18.90;11.90;;;;;;;8.33;100.00;102137.72;5027439;28;20436;-47
2023/05/05 01:40:19;;;;;;;14.40;10.43;;;;;;;8.32;100.00;102133.41;5032221;28;20428;-44
2023/05/05 01:42:48;;;;;;;16.83;11.67;;;;;;;8.41;100.00;102130.84;5033574;28;21062;-43
2023/05/05 01:45:20;;;;;;;12.13;10.97;;;;;;;8.36;100.00;102125.16;5035310;28;20428;-46
2023/05/05 01:47:49;;;;;;;26.07;12.17;;;;;;;8.32;100.00;102128.09;5035235;28;20562;-46
2023/05/05 01:50:18;;;;;;;22.57;13.50;;;;;;;8.34;100.00;102123.47;5033709;28;20527;-44
2023/05/05 01:52:47;;;;;;;13.43;10.70;;;;;;;8.36;100.00;102131.31;5033793;28;20929;-45
2023/05/05 01:55:18;;;;;;;14.43;11.50;;;;;;;8.38;100.00;102131.16;5035423;28;20434;-44
2023/05/05 01:57:48;;;;;;;16.20;11.30;;;;;;;8.40;100.00;102135.31;5034570;28;20428;-43
2023/05/05 02:00:18;;;;;;;21.27;11.23;;;;;;;8.39;100.00;102120.38;5033325;28;20428;-46
2023/05/05 02:02:49;;;;;;;11.70;10.60;;;;;;;8.37;100.00;102137.44;5023541;28;20472;-43
2023/05/05 02:05:21;;;;;;;12.37;11.07;;;;;;;8.36;100.00;102138.44;5034834;28;20443;-48
2023/05/05 02:07:50;;;;;;;21.57;12.17;;;;;;;8.38;100.00;102136.47;5035671;28;20555;-45
2023/05/05 02:10:18;;;;;;;18.17;11.73;;;;;;;8.39;100.00;102139.00;5038283;28;20479;-44
2023/05/05 02:12:47;;;;;;;23.67;11.77;;;;;;;8.36;100.00;102128.66;5038421;28;20468;-46
2023/05/05 02:15:16;;;;;;;14.67;10.90;;;;;;;8.30;100.00;102126.59;5039234;28;20435;-43
2023/05/05 02:17:46;;;;;;;12.63;10.70;;;;;;;8.28;100.00;102121.41;5038410;28;20436;-44
2023/05/05 02:20:18;;;;;;;14.80;11.63;;;;;;;8.30;100.00;102118.59;5038684;28;20741;-46
2023/05/05 02:22:45;;;;;;;17.57;11.90;;;;;;;8.34;100.00;102109.34;5038437;28;20969;-47
2023/05/05 02:25:13;;;;;;;18.80;11.80;;;;;;;8.32;100.00;102135.25;5039921;28;20922;-44
2023/05/05 02:27:44;;;;;;;12.90;11.33;;;;;;;8.33;100.00;102128.94;5037607;28;20432;-43
2023/05/05 02:30:15;;;;;;;14.60;12.20;;;;;;;8.32;100.00;102121.94;5020315;28;20538;-44
2023/05/05 02:32:48;;;;;;;13.93;12.53;;;;;;;8.30;100.00;102108.78;5016459;28;21002;-48
2023/05/05 02:35:22;;;;;;;14.23;12.20;;;;;;;8.30;100.00;102119.41;5019264;28;20429;-48
2023/05/05 02:37:55;;;;;;;15.27;12.37;;;;;;;8.33;100.00;102111.16;5020234;28;20428;-46
2023/05/05 02:40:26;;;;;;;12.93;11.73;;;;;;;8.32;100.00;102116.63;5018745;28;20426;-46
2023/05/05 02:42:57;;;;;;;15.47;11.67;;;;;;;8.30;100.00;102122.06;5019716;28;20469;-49
2023/05/05 02:45:26;;;;;;;12.97;11.87;;;;;;;8.32;100.00;102117.47;5020009;28;20482;-46
2023/05/05 02:47:54;;;;;;;14.50;11.47;;;;;;;8.31;100.00;102126.41;5018784;28;20433;-45
2023/05/05 02:50:23;;;;;;;13.17;12.07;;;;;;;8.27;100.00;102102.94;5019442;28;20472;-44
2023/05/05 02:52:51;;;;;;;18.63;13.13;;;;;;;8.25;100.00;102105.72;5019030;28;20469;-44
2023/05/05 02:55:19;;;;;;;15.40;12.10;;;;;;;8.25;100.00;102103.06;5019027;28;20442;-45
2023/05/05 02:57:51;;;;;;;15.03;12.80;;;;;;;8.29;100.00;102098.31;5018395;28;20437;-42
2023/05/05 03:00:24;;;;;;;12.73;11.60;;;;;;;8.27;100.00;102103.78;5018750;28;20429;-45
2023/05/05 03:03:00;;;;;;;13.80;12.40;;;;;;;8.29;100.00;102101.81;5008894;28;20481;-46
2023/05/05 03:05:37;;;;;;;14.17;12.37;;;;;;;8.24;100.00;102088.09;5018722;28;20445;-46
2023/05/05 03:08:10;;;;;;;13.57;11.60;;;;;;;8.21;100.00;102106.19;5018903;28;20421;-45
2023/05/05 03:10:46;;;;;;;14.53;13.00;;;;;;;8.26;100.00;102079.97;5018421;28;20480;-47
2023/05/05 03:13:17;;;;;;;13.37;12.00;;;;;;;8.31;100.00;102073.25;5017630;28;20834;-43
2023/05/05 03:15:47;;;;;;;16.93;13.50;;;;;;;8.22;100.00;102067.97;5017623;28;20531;-47
2023/05/05 03:18:18;;;;;;;16.80;13.30;;;;;;;8.28;100.00;102080.69;5018044;28;20433;-43
2023/05/05 03:20:48;;;;;;;15.53;13.17;;;;;;;8.22;100.00;102052.03;5017959;28;20433;-43
2023/05/05 03:23:17;;;;;;;17.37;12.63;;;;;;;8.22;100.00;102067.97;5017563;28;20464;-45
2023/05/05 03:25:45;;;;;;;14.43;13.00;;;;;;;8.21;100.00;102061.00;5026905;28;20460;-45
2023/05/05 03:28:13;;;;;;;22.17;14.43;;;;;;;8.22;100.00;102068.81;5031460;28;20480;-46
2023/05/05 03:30:42;;;;;;;14.40;12.90;;;;;;;8.24;100.00;102063.38;5018215;28;21002;-43
2023/05/05 03:33:10;;;;;;;16.33;14.00;;;;;;;8.23;100.00;102065.19;5025096;28;21136;-44
2023/05/05 03:35:38;;;;;;;20.07;13.33;;;;;;;8.23;100.00;102075.81;5037335;28;20974;-43
2023/05/05 03:38:07;;;;;;;16.30;13.87;;;;;;;8.17;100.00;102043.69;5037293;28;20595;-44
2023/05/05 03:40:34;;;;;;;16.07;14.40;;;;;;;8.21;100.00;102068.97;5037948;28;20456;-45
2023/05/05 03:43:10;;;;;;;16.17;14.00;;;;;;;8.21;100.00;102068.97;5036040;28;20486;-46
2023/05/05 03:45:38;;;;;;;18.67;14.73;;;;;;;8.17;100.00;102051.66;5037282;28;20798;-44
2023/05/05 03:48:08;;;;;;;15.20;13.60;;;;;;;8.18;100.00;102046.16;5037231;28;20440;-45
2023/05/05 03:50:36;;;;;;;21.47;13.90;;;;;;;8.20;100.00;102059.31;5036745;28;20472;-43
2023/05/05 03:53:04;;;;;;;15.60;14.10;;;;;;;8.17;100.00;102065.78;5036603;28;20473;-46
2023/05/05 03:55:33;;;;;;;18.80;14.13;;;;;;;8.21;100.00;102061.00;5036207;28;20440;-48
2023/05/05 03:58:00;;;;;;;18.33;15.23;;;;;;;8.20;100.00;102068.13;5037180;28;20486;-42
2023/05/05 04:00:28;;;;;;;17.53;14.50;;;;;;;8.20;100.00;102076.09;5037750;28;20434;-47
2023/05/05 04:02:56;;;;;;;21.87;13.80;;;;;;;8.20;100.00;102075.25;5036506;28;20452;-46
2023/05/05 04:05:24;;;;;;;18.07;13.53;;;;;;;8.22;100.00;102079.44;5030681;28;20840;-44
2023/05/05 04:07:51;;;;;;;14.67;13.13;;;;;;;8.24;100.00;102092.59;5037723;28;20540;-43
2023/05/05 04:10:20;;;;;;;15.47;13.83;;;;;;;8.23;100.00;102067.00;5036691;28;20436;-51
2023/05/05 04:12:49;;;;;;;14.27;12.93;;;;;;;8.27;100.00;102071.88;5037039;28;20448;-43
2023/05/05 04:15:17;;;;;;;17.23;13.73;;;;;;;8.28;100.00;102070.91;5036602;28;20464;-44
2023/05/05 04:17:44;;;;;;;15.07;13.57;;;;;;;8.31;100.00;102075.09;5037017;28;20530;-44
2023/05/05 04:20:12;;;;;;;14.60;13.10;;;;;;;8.27;100.00;102061.25;5036464;28;20519;-44
2023/05/05 04:22:40;;;;;;;15.77;14.20;;;;;;;8.32;100.00;102058.16;5035880;28;20448;-42
2023/05/05 04:25:08;;;;;;;14.80;12.80;;;;;;;8.28;100.00;102062.09;5036096;28;20460;-42
2023/05/05 04:27:35;;;;;;;15.17;13.70;;;;;;;8.32;100.00;102085.59;5034570;28;20436;-44
2023/05/05 04:30:05;;;;;;;13.13;11.93;;;;;;;8.31;100.00;102073.25;5016416;28;20440;-51
2023/05/05 04:32:33;;;;;;;18.27;14.17;;;;;;;8.36;100.00;102072.84;5015242;28;20560;-45
2023/05/05 04:35:01;;;;;;;21.43;12.67;;;;;;;8.32;100.00;102069.63;5014621;28;20461;-43
2023/05/05 04:37:29;;;;;;;15.57;12.87;;;;;;;8.27;100.00;102061.25;5017505;28;20437;-49
2023/05/05 04:39:56;;;;;;;13.50;12.10;;;;;;;8.31;100.00;102070.59;5015783;28;20448;-45
2023/05/05 04:42:24;;;;;;;13.10;11.80;;;;;;;8.34;100.00;102072.13;5015024;28;20453;-44
2023/05/05 04:44:52;;;;;;;13.97;12.60;;;;;;;8.34;100.00;102086.25;5015145;28;20465;-44
2023/05/05 04:47:21;;;;;;;15.83;12.43;;;;;;;8.32;100.00;102077.59;5015862;28;20433;-44
2023/05/05 04:49:49;;;;;;;12.30;11.30;;;;;;;8.33;100.00;102092.53;5015149;28;20460;-43
2023/05/05 04:52:17;;;;;;;14.43;12.50;;;;;;;8.31;100.00;102094.53;5016698;28;20469;-48
2023/05/05 04:54:44;;;;;;;12.60;11.40;;;;;;;8.35;100.00;102100.38;5016901;28;20841;-45
2023/05/05 04:57:12;;;;;;;13.53;12.13;;;;;;;8.30;100.00;102103.47;5015541;28;20440;-43
2023/05/05 04:59:40;;;;;;;13.07;10.53;;;;;;;8.31;100.00;102091.88;5015596;28;20433;-43
2023/05/05 05:02:07;;;;;;;12.17;11.40;;;;;;;8.33;100.00;102089.09;5016983;28;20456;-45
2023/05/05 05:04:36;;;;;;;15.53;11.23;;;;;;;8.45;100.00;102087.03;5014860;28;20535;-45
2023/05/05 05:07:04;;;;;;;11.70;10.50;;;;;;;8.39;100.00;102083.16;5015393;28;20552;-46
2023/05/05 05:09:32;;;;;;;14.33;11.17;;;;;;;8.43;100.00;102047.31;5015985;28;20429;-45
2023/05/05 05:12:01;;;;;;;11.40;10.47;;;;;;;8.49;100.00;102083.91;5031263;28;20524;-45
2023/05/05 05:14:29;;;;;;;11.70;10.80;;;;;;;8.79;100.00;102085.38;5035048;28;20468;-47
2023/05/05 05:16:57;;;;;;;10.73;9.90;;;;;;;9.42;100.00;102084.22;5036056;28;20451;-43
2023/05/05 05:19:25;;;;;;;14.43;10.23;;;;;;;9.57;100.00;102104.94;5035921;28;20432;-46
2023/05/05 05:21:54;;;;;;;14.97;9.37;;;;;;;9.64;100.00;102072.22;5036599;28;21009;-45
2023/05/05 05:24:21;;;;;;;13.30;9.83;;;;;;;10.05;100.00;102083.88;5035822;28;20466;-46
2023/05/05 05:26:49;;;;;;;10.83;9.53;;;;;;;10.55;100.00;102083.91;5028706;28;20471;-46
2023/05/05 05:29:17;;;;;;;9.50;8.50;;;;;;;10.83;100.00;102079.13;5028148;28;20432;-42
2023/05/05 05:31:44;;;;;;;10.33;8.20;;;;;;;10.95;100.00;102067.09;5031737;28;20475;-47
2023/05/05 05:34:12;;;;;;;8.93;7.47;;;;;;;11.10;100.00;102076.13;5028814;28;20501;-44
2023/05/05 05:36:40;;;;;;;9.20;8.30;;;;;;;11.75;100.00;102076.88;5026906;28;20938;-44
2023/05/05 05:39:09;;;;;;;19.10;8.30;;;;;;;11.70;100.00;102057.84;5031790;28;20439;-48
2023/05/05 05:41:36;;;;;;;10.57;6.90;;;;;;;11.33;100.00;102071.75;5032422;28;20448;-43
2023/05/05 05:44:04;;;;;;;9.63;6.87;;;;;;;10.86;100.00;102084.13;5032087;28;20488;-48
2023/05/05 05:46:32;;;;;;;8.37;7.23;;;;;;;10.76;100.00;102067.41;5037717;28;20431;-44
2023/05/05 05:49:00;;;;;;;8.77;7.07;;;;;;;11.21;100.00;102077.59;5035828;28;21013;-46
2023/05/05 05:51:27;;;;;;;10.63;7.10;;;;;;;11.84;100.00;102081.19;5035245;28;20766;-44
2023/05/05 05:53:55;;;;;;;8.47;6.67;;;;;;;11.80;100.00;102060.34;5035125;28;20464;-46
2023/05/05 05:56:26;;;;;;;7.77;7.10;;;;;;;11.68;100.00;102075.84;5035930;28;20467;-48
2023/05/05 05:58:54;;;;;;;6.70;6.00;;;;;;;11.99;100.00;102063.41;5034898;28;20436;-46
2023/05/05 06:01:22;;;;;;;8.63;6.60;;;;;;;12.43;100.00;102055.66;5036803;28;20490;-43
2023/05/05 06:03:50;;;;;;;10.83;6.20;;;;;;;12.28;100.00;102054.75;5034516;28;20546;-43
2023/05/05 06:06:18;;;;;;;14.00;7.70;;;;;;;12.33;100.00;102063.09;5034417;28;20428;-44
2023/05/05 06:08:45;;;;;;;7.33;6.40;;;;;;;12.31;100.00;102061.56;5035542;28;20436;-44
2023/05/05 06:11:13;;;;;;;7.17;5.60;;;;;;;11.90;100.00;102055.59;5035987;28;20448;-44
2023/05/05 06:13:42;;;;;;;10.20;5.70;;;;;;;11.95;100.00;102030.00;5033667;28;20468;-45
2023/05/05 06:16:10;;;;;;;10.27;5.70;;;;;;;11.87;100.00;102040.75;5035711;28;20443;-48
2023/05/05 06:18:38;;;;;;;7.70;5.13;;;;;;;11.94;100.00;102076.47;5034518;28;20490;-42
2023/05/05 06:21:06;;;;;;;12.57;5.67;;;;;;;11.55;100.00;102054.19;5033790;28;20444;-47
2023/05/05 06:23:33;;;;;;;10.30;5.47;;;;;;;11.45;100.00;102072.22;5034939;28;21073;-42
2023/05/05 06:26:01;;;;;;;9.87;6.17;;;;;;;11.46;100.00;102050.69;5034885;28;20432;-47
2023/05/05 06:28:28;;;;;;;9.50;6.33;;;;;;;11.05;100.00;102030.41;5027011;28;20437;-42
2023/05/05 06:30:58;;;;;;;8.27;6.50;;;;;;;11.22;100.00;102040.06;5016599;28;20441;-46
2023/05/05 06:33:25;;;;;;;7.60;6.00;;;;;;;11.08;100.00;102054.06;5011296;28;20882;-46
2023/05/05 06:35:53;;;;;;;10.83;6.70;;;;;;;11.12;100.00;102068.75;5016189;28;20443;-42
2023/05/05 06:38:21;;;;;;;14.20;6.70;;;;;;;11.00;100.00;102059.44;5016155;28;20463;-44
2023/05/05 06:40:49;;;;;;;7.33;6.60;;;;;;;11.05;100.00;102065.94;5017373;28;20444;-44
2023/05/05 06:43:17;;;;;;;13.40;6.00;;;;;;;11.25;100.00;102063.75;5014974;28;20429;-44
2023/05/05 06:45:45;;;;;;;9.87;6.33;;;;;;;11.43;100.00;102058.22;5016780;28;20460;-50
2023/05/05 06:48:14;;;;;;;9.73;5.93;;;;;;;11.74;100.00;102051.13;5014827;28;20429;-44
2023/05/05 06:50:42;;;;;;;10.70;6.60;;;;;;;12.30;100.00;102065.28;5015050;28;20491;-45
2023/05/05 06:53:09;;;;;;;7.43;6.57;;;;;;;12.00;100.00;102059.75;5015868;28;20477;-44
2023/05/05 06:55:37;;;;;;;12.07;6.10;;;;;;;11.72;100.00;102047.81;5015412;28;20555;-44
2023/05/05 06:58:05;;;;;;;8.03;6.13;;;;;;;11.45;100.00;102043.69;5014638;28;20441;-45
2023/05/05 07:00:32;;;;;;;10.70;6.47;;;;;;;11.34;100.00;102043.22;5013818;28;20870;-43
2023/05/05 07:03:00;;;;;;;9.37;6.33;;;;;;;11.30;100.00;102056.06;5014343;28;20449;-49
2023/05/05 07:05:30;;;;;;;10.97;6.73;;;;;;;11.32;100.00;102056.72;5015890;28;20461;-46
2023/05/05 07:07:58;;;;;;;7.60;6.90;;;;;;;11.55;100.00;102047.00;5015395;28;20951;-45
2023/05/05 07:10:26;;;;;;;7.87;6.23;;;;;;;11.84;100.00;102053.63;5016468;28;20451;-46
2023/05/05 07:12:54;;;;;;;16.20;7.60;;;;;;;11.45;100.00;102032.16;5012991;28;20739;-46
2023/05/05 07:15:22;;;;;;;22.97;7.63;;;;;;;11.85;100.00;102057.97;5014908;28;20461;-47
2023/05/05 07:17:55;;;;;;;9.90;7.00;;;;;;;12.21;100.00;102067.16;5016713;28;20436;-44
2023/05/05 07:20:23;;;;;;;6.93;6.27;;;;;;;12.92;99.40;102063.34;5016823;28;20440;-44
2023/05/05 07:22:52;;;;;;;6.63;5.97;;;;;;;12.88;93.27;102076.25;5015794;28;20472;-45
2023/05/05 07:25:20;;;;;;;7.23;6.37;;;;;;;12.70;93.82;102089.09;5020037;28;21181;-44
2023/05/05 07:27:47;;;;;;;10.93;6.40;;;;;;;12.16;98.88;102093.56;5033001;28;20433;-45
2023/05/05 07:30:15;;;;;;;10.30;6.10;;;;;;;12.03;100.00;102094.16;5014081;28;20441;-45
2023/05/05 07:32:45;;;;;;;18.33;6.20;;;;;;;11.56;100.00;102107.44;5015756;28;20519;-46
2023/05/05 07:35:14;;;;;;;7.30;6.60;;;;;;;11.66;100.00;102100.06;5013620;28;20516;-46
2023/05/05 07:37:41;;;;;;;9.60;6.00;;;;;;;11.72;100.00;102111.94;5015011;28;20476;-46
2023/05/05 07:40:11;;;;;;;12.90;6.27;;;;;;;12.05;100.00;102102.81;5014388;28;20923;-44
2023/05/05 07:42:39;;;;;;;7.73;6.53;;;;;;;12.00;100.00;102099.84;5015785;28;20445;-46
2023/05/05 07:45:08;;;;;;;8.03;6.27;;;;;;;12.55;100.00;102097.06;5015034;28;20472;-44
2023/05/05 07:47:35;;;;;;;13.67;6.07;;;;;;;12.25;98.53;102083.66;5015778;28;20432;-43
2023/05/05 07:50:03;;;;;;;12.30;6.57;;;;;;;12.09;100.00;102081.94;5016282;28;20441;-51
2023/05/05 07:52:31;;;;;;;10.13;6.77;;;;;;;12.55;100.00;102099.72;5014192;28;20551;-44
2023/05/05 07:55:16;;;;;;;11.00;7.20;;;;;;;12.65;96.87;102105.69;5014448;28;20552;-45
2023/05/05 07:57:43;;;;;;;13.00;7.23;;;;;;;12.30;96.13;102074.13;5016422;28;20539;-46
2023/05/05 08:00:13;;;;;;;8.00;6.47;;;;;;;12.26;99.91;102112.94;5014314;28;20437;-50
2023/05/05 08:02:41;;;;;;;12.13;6.30;;;;;;;12.25;100.00;102091.69;5013111;28;20461;-44
2023/05/05 08:05:09;;;;;;;12.83;6.90;;;;;;;12.32;98.93;102120.25;5013186;28;20469;-45
2023/05/05 08:07:39;;;;;;;7.00;6.13;;;;;;;12.30;100.00;102100.88;5014825;28;20441;-47
2023/05/05 08:10:10;;;;;;;8.50;7.77;;;;;;;12.41;97.12;102110.34;5014768;28;20939;-49
2023/05/05 08:12:39;;;;;;;13.30;5.90;;;;;;;12.39;95.04;102117.72;5013796;28;20457;-44
2023/05/05 08:15:08;;;;;;;10.83;7.13;;;;;;;12.58;93.39;102118.09;5013581;28;20484;-46
2023/05/05 08:17:47;;;;;;;12.07;7.00;;;;;;;12.30;96.27;102116.09;5015006;28;20851;-48
2023/05/05 08:20:15;;;;;;;13.53;5.70;;;;;;;12.31;98.28;102102.53;5015108;28;20441;-46
2023/05/05 08:22:43;;;;;;;11.87;7.40;;;;;;;12.08;99.26;102110.50;5014667;28;20457;-45
2023/05/05 08:25:11;;;;;;;6.57;5.97;;;;;;;11.75;100.00;102130.31;5018636;28;20467;-45
2023/05/05 08:27:42;;;;;;;12.73;7.03;;;;;;;11.56;100.00;102098.56;5033044;28;20467;-44
2023/05/05 08:30:10;;;;;;;15.37;6.93;;;;;;;11.57;100.00;102141.19;5014500;28;20468;-46
2023/05/05 08:32:38;;;;;;;12.70;6.23;;;;;;;11.87;100.00;102147.66;5014490;28;20453;-46
2023/05/05 08:35:06;;;;;;;11.60;5.90;;;;;;;11.62;100.00;102154.00;5014071;28;20979;-43
2023/05/05 08:37:35;;;;;;;6.80;6.10;;;;;;;11.85;100.00;102136.31;5014625;28;20496;-46
2023/05/05 08:40:02;;;;;;;9.27;5.57;;;;;;;12.04;100.00;102135.91;5015312;28;20440;-44
2023/05/05 08:42:30;;;;;;;10.30;6.00;;;;;;;12.20;100.00;102162.59;5013745;28;20456;-48
2023/05/05 08:45:07;;;;;;;7.40;5.47;;;;;;;12.35;100.00;102165.38;5013574;28;20468;-44
2023/05/05 08:47:37;;;;;;;10.00;6.13;;;;;;;12.13;100.00;102145.56;5014655;28;20437;-46
2023/05/05 08:50:05;;;;;;;9.10;5.80;;;;;;;12.38;100.00;102138.28;5013329;28;20485;-48
2023/05/05 08:52:44;;;;;;;13.27;7.13;;;;;;;12.57;100.00;102158.44;5014063;28;20453;-43
2023/05/05 08:55:15;;;;;;;9.83;6.30;;;;;;;12.76;99.83;102160.66;5012132;28;20467;-46
2023/05/05 08:57:50;;;;;;;20.40;5.10;;;;;;;12.67;99.59;102138.47;5014972;28;20469;-46
2023/05/05 09:00:20;;;;;;;10.83;5.10;;;;;;;12.76;98.13;102158.81;5013116;28;21017;-47
2023/05/05 09:02:48;;;;;;;7.90;4.93;;;;;;;12.75;100.00;102138.41;5014419;28;20480;-46
2023/05/05 09:05:16;;;;;;;7.07;5.03;;;;;;;12.31;100.00;102139.97;5013603;28;20465;-47
2023/05/05 09:07:45;;;;;;;7.43;5.60;;;;;;;12.56;100.00;102160.28;5014859;28;20503;-48
2023/05/05 09:10:13;;;;;;;11.33;5.40;;;;;;;12.76;99.67;102120.50;5015081;28;20491;-44
2023/05/05 09:12:41;;;;;;;9.80;5.50;;;;;;;12.55;99.30;102115.78;5014255;28;20507;-44
2023/05/05 09:15:10;;;;;;;10.90;5.10;;;;;;;12.35;100.00;102121.75;5015164;28;20488;-45
2023/05/05 09:17:40;;;;;;;5.70;5.20;;;;;;;12.05;100.00;102096.63;5014355;28;20445;-48
2023/05/05 09:20:09;;;;;;;12.80;5.60;;;;;;;12.23;100.00;102099.91;5013283;28;20793;-45
2023/05/05 09:22:38;;;;;;;12.13;5.30;;;;;;;12.11;100.00;102104.81;5014931;28;20500;-50
2023/05/05 09:25:08;;;;;;;11.87;5.60;;;;;;;12.33;100.00;102121.94;5017501;28;20541;-47
2023/05/05 09:27:37;;;;;;;15.83;5.10;;;;;;;12.17;100.00;102103.28;5032167;28;20488;-45
2023/05/05 09:30:06;;;;;;;16.73;5.10;;;;;;;12.02;100.00;102097.00;5014514;28;20425;-45
2023/05/05 09:32:50;;;;;;;7.37;5.00;;;;;;;12.10;100.00;102075.56;5012221;28;21030;-43
2023/05/05 09:35:22;;;;;;;13.27;5.40;;;;;;;12.10;100.00;102119.19;5009772;28;20522;-47
2023/05/05 09:37:49;;;;;;;8.87;5.63;;;;;;;12.43;100.00;102105.66;5015761;28;20436;-47
2023/05/05 09:40:19;;;;;;;7.27;4.97;;;;;;;12.27;100.00;102117.28;5014620;28;20433;-50
2023/05/05 09:42:48;;;;;;;14.63;5.27;;;;;;;12.35;100.00;102132.44;5013715;28;20532;-51
2023/05/05 09:45:26;;;;;;;11.53;5.30;;;;;;;12.66;100.00;102101.19;5014592;28;20467;-45
2023/05/05 09:47:55;;;;;;;8.07;4.90;;;;;;;12.80;99.50;102126.34;5013258;28;20442;-47
2023/05/05 09:50:29;;;;;;;7.57;5.13;;;;;;;12.61;99.30;102119.59;5012855;28;20444;-47
2023/05/05 09:52:58;;;;;;;15.07;5.30;;;;;;;12.70;99.76;102121.22;5012883;28;20464;-47
2023/05/05 09:55:26;;;;;;;12.73;5.50;;;;;;;12.93;99.09;102132.75;5013920;28;20519;-44
2023/05/05 09:57:54;;;;;;;8.20;4.40;;;;;;;12.77;97.57;102127.53;5013885;28;21093;-44
2023/05/05 10:00:37;;;;;;;13.97;6.53;;;;;;;12.92;96.55;102128.44;5014487;28;20437;-44
2023/05/05 10:03:06;;;;;;;15.63;5.73;;;;;;;13.04;94.46;102126.16;5010373;28;20840;-47
2023/05/05 10:05:47;;;;;;;5.73;5.10;;;;;;;12.71;97.68;102125.56;5012490;28;20437;-44
2023/05/05 10:08:15;;;;;;;7.27;6.47;;;;;;;12.80;97.72;102097.72;5012396;28;20456;-48
2023/05/05 10:10:47;;;;;;;10.40;6.27;;;;;;;12.97;99.37;102107.31;5013080;28;20433;-47
2023/05/05 10:13:17;;;;;;;12.07;5.90;;;;;;;13.25;96.46;102104.94;5014234;28;20433;-46
2023/05/05 10:15:47;;;;;;;10.27;5.70;;;;;;;13.57;92.35;102093.06;5014023;28;20472;-45
2023/05/05 10:18:20;;;;;;;7.10;5.60;;;;;;;13.04;92.09;102091.34;5014102;28;20435;-48
2023/05/05 10:20:51;;;;;;;5.13;4.70;;;;;;;12.45;95.78;102098.28;5013622;28;20479;-49
2023/05/05 10:23:22;;;;;;;6.80;5.73;;;;;;;12.51;98.56;102094.91;5013575;28;20433;-47
2023/05/05 10:25:58;;;;;;;10.80;5.93;;;;;;;12.66;99.03;102139.47;5022100;28;20432;-46
2023/05/05 10:28:31;;;;;;;8.03;4.70;;;;;;;12.37;100.00;102056.34;5023763;28;20425;-48
2023/05/05 10:31:01;;;;;;;11.17;5.00;;;;;;;12.05;99.41;102093.97;5013825;28;20858;-42
2023/05/05 10:33:47;;;;;;;11.23;5.63;;;;;;;11.71;100.00;102093.44;5012029;28;20545;-46
2023/05/05 10:36:16;;;;;;;10.47;5.53;;;;;;;11.70;100.00;102089.91;5016407;28;20949;-45
2023/05/05 10:38:46;;;;;;;7.17;4.47;;;;;;;11.99;100.00;102087.47;5017450;28;20486;-44
2023/05/05 10:41:15;;;;;;;5.90;4.83;;;;;;;12.01;100.00;102104.16;5017778;28;20457;-47
2023/05/05 10:43:43;;;;;;;5.80;4.53;;;;;;;12.25;99.67;102089.84;5016411;28;20459;-46
2023/05/05 10:46:11;;;;;;;8.60;5.10;;;;;;;12.10;98.58;102099.63;5018693;28;20425;-45
2023/05/05 10:48:46;;;;;;;7.07;4.43;;;;;;;11.98;96.93;102103.69;5016569;28;20943;-44
2023/05/05 10:51:26;;;;;;;9.80;4.63;;;;;;;11.96;99.36;102100.34;5018446;28;20453;-45
2023/05/05 10:54:13;;;;;;;8.40;4.63;;;;;;;12.05;98.63;102112.69;5014597;28;20456;-46
2023/05/05 10:56:41;;;;;;;8.27;5.20;;;;;;;11.78;98.54;102102.41;5015724;28;20874;-47
2023/05/05 10:59:46;;;;;;;7.00;4.87;;;;;;;11.88;98.14;102105.72;5017897;28;20439;-46
2023/05/05 11:02:27;;;;;;;9.20;4.53;;;;;;;11.86;98.93;102105.88;5006594;28;20521;-43
2023/05/05 11:05:16;;;;;;;8.57;4.73;;;;;;;12.20;95.90;102085.03;5015363;28;20495;-47
2023/05/05 11:07:45;;;;;;;9.67;4.67;;;;;;;12.46;93.78;102057.97;5017797;28;20432;-45
2023/05/05 11:10:15;;;;;;;11.37;6.10;;;;;;;12.43;91.81;102095.78;5015393;28;20429;-46
2023/05/05 11:13:17;;;;;;;7.83;5.37;;;;;;;12.76;90.03;102070.47;5014872;28;20453;-48
2023/05/05 11:15:45;;;;;;;8.43;5.53;;;;;;;13.39;88.88;102079.19;5036425;28;20463;-43
2023/05/05 11:18:29;;;;;;;7.60;4.60;;;;;;;13.15;84.56;102105.19;5036842;28;20436;-47
2023/05/05 11:21:15;;;;;;;7.17;5.73;;;;;;;13.15;87.11;102065.00;5035446;28;20428;-46
2023/05/05 11:23:48;;;;;;;10.67;4.70;;;;;;;13.08;87.85;102057.91;5034470;28;20483;-44
2023/05/05 11:26:17;;;;;;;11.73;5.00;;;;;;;12.76;89.92;102049.06;5047802;28;20431;-46
2023/05/05 11:29:02;;;;;;;15.23;5.13;;;;;;;12.67;90.62;102050.13;5054795;28;21172;-48